Time;durP1;ratioP1;P1;durP2;ratioP2;P2;SDS_P1;SDS_P2;PMS_P1;PMS_P2;Temp;Humidity;BMP_temperature;BMP_pressure;BME280_temperature;BME280_humidity;BME280_pressure;Samples;Min_cycle;Max_cycle;Signal;HPM_P1;HPM_P2
2023/08/26 00:01:59;;;;;;;14.32;12.60;;;;;;;;;;5045226;28;20212;-64
2023/08/26 00:04:26;;;;;;;13.10;11.35;;;;;;;;;;5043372;28;20281;-63
2023/08/26 00:06:54;;;;;;;12.73;11.43;;;;;;;;;;5038869;28;20705;-62
2023/08/26 00:09:21;;;;;;;13.05;10.98;;;;;;;;;;5042551;28;20275;-61
2023/08/26 00:11:50;;;;;;;13.57;11.18;;;;;;;;;;5040758;28;21164;-65
2023/08/26 00:14:17;;;;;;;11.52;10.40;;;;;;;;;;5035542;28;20206;-62
2023/08/26 00:16:44;;;;;;;12.15;10.90;;;;;;;;;;5040589;28;20272;-62
2023/08/26 00:19:12;;;;;;;11.63;9.98;;;;;;;;;;5038188;28;20222;-62
2023/08/26 00:21:39;;;;;;;13.13;10.95;;;;;;;;;;5047772;28;20207;-64
2023/08/26 00:24:06;;;;;;;12.88;10.50;;;;;;;;;;5044336;28;20652;-62
2023/08/26 00:26:34;;;;;;;13.40;10.88;;;;;;;;;;5043071;28;20226;-63
2023/08/26 00:29:01;;;;;;;12.50;10.40;;;;;;;;;;5043083;28;20216;-62
2023/08/26 00:31:28;;;;;;;13.32;11.45;;;;;;;;;;5045409;28;20288;-64
2023/08/26 00:33:57;;;;;;;13.23;11.82;;;;;;;;;;5046796;28;20292;-63
2023/08/26 00:36:25;;;;;;;12.93;11.60;;;;;;;;;;5046114;28;20296;-63
2023/08/26 00:38:52;;;;;;;12.30;11.15;;;;;;;;;;5043750;28;20218;-63
2023/08/26 00:41:19;;;;;;;13.15;11.77;;;;;;;;;;5044724;28;20199;-63
2023/08/26 00:43:47;;;;;;;12.73;11.13;;;;;;;;;;5043973;28;20821;-63
2023/08/26 00:46:14;;;;;;;11.98;10.77;;;;;;;;;;5042466;28;20227;-64
2023/08/26 00:48:42;;;;;;;12.05;10.85;;;;;;;;;;5040811;28;20238;-62
2023/08/26 00:51:09;;;;;;;12.40;10.75;;;;;;;;;;5041411;28;20216;-63
2023/08/26 00:53:37;;;;;;;12.32;10.70;;;;;;;;;;5043028;28;20203;-64
2023/08/26 00:56:04;;;;;;;12.35;10.45;;;;;;;;;;5041029;28;20233;-62
2023/08/26 00:58:32;;;;;;;13.20;11.30;;;;;;;;;;5037353;28;20221;-62
2023/08/26 01:00:59;;;;;;;12.23;10.20;;;;;;;;;;5040081;28;20603;-61
2023/08/26 01:03:27;;;;;;;10.32;9.32;;;;;;;;;;5047821;28;20603;-64
2023/08/26 01:05:54;;;;;;;9.85;8.85;;;;;;;;;;5043585;28;20229;-59
2023/08/26 01:08:22;;;;;;;10.07;8.52;;;;;;;;;;5041074;28;20624;-64
2023/08/26 01:10:57;;;;;;;11.32;8.05;;;;;;;;;;5038799;28;20229;-62
2023/08/26 01:13:29;;;;;;;7.75;6.95;;;;;;;;;;5034024;28;20251;-64
2023/08/26 01:15:57;;;;;;;11.27;7.53;;;;;;;;;;5043327;28;20218;-61
2023/08/26 01:18:24;;;;;;;8.32;7.40;;;;;;;;;;5037113;28;20315;-59
2023/08/26 01:20:52;;;;;;;9.75;6.68;;;;;;;;;;5041372;28;20202;-63
2023/08/26 01:23:25;;;;;;;7.03;6.35;;;;;;;;;;5040554;28;20226;-62
2023/08/26 01:25:53;;;;;;;9.10;7.10;;;;;;;;;;5043006;28;20245;-64
2023/08/26 01:28:20;;;;;;;11.13;7.28;;;;;;;;;;5040863;28;20260;-61
2023/08/26 01:30:48;;;;;;;9.88;7.30;;;;;;;;;;5044278;28;20210;-62
2023/08/26 01:33:26;;;;;;;8.20;7.30;;;;;;;;;;5037094;28;20644;-62
2023/08/26 01:35:56;;;;;;;9.45;6.95;;;;;;;;;;5042345;28;20222;-59
2023/08/26 01:38:25;;;;;;;7.90;6.78;;;;;;;;;;5038369;28;20805;-61
2023/08/26 01:40:56;;;;;;;8.77;7.05;;;;;;;;;;5037222;28;20206;-64
2023/08/26 01:43:24;;;;;;;11.27;7.55;;;;;;;;;;5036623;28;20210;-63
2023/08/26 01:45:52;;;;;;;7.55;6.85;;;;;;;;;;5039523;28;20222;-64
2023/08/26 01:48:20;;;;;;;7.93;7.10;;;;;;;;;;5042273;28;20652;-61
2023/08/26 01:50:48;;;;;;;9.60;6.47;;;;;;;;;;5036388;28;20206;-60
2023/08/26 01:53:15;;;;;;;9.48;6.88;;;;;;;;;;5038366;28;20241;-61
2023/08/26 01:55:42;;;;;;;8.10;7.30;;;;;;;;;;5045171;28;20222;-59
2023/08/26 01:58:09;;;;;;;9.52;6.90;;;;;;;;;;5042285;28;20233;-63
2023/08/26 02:00:37;;;;;;;9.43;6.82;;;;;;;;;;5038996;28;20202;-61
2023/08/26 02:03:04;;;;;;;8.82;7.03;;;;;;;;;;5037573;28;20206;-62
2023/08/26 02:05:31;;;;;;;9.23;7.50;;;;;;;;;;5039550;28;20317;-62
2023/08/26 02:07:59;;;;;;;8.15;6.43;;;;;;;;;;5040924;28;20208;-59
2023/08/26 02:10:26;;;;;;;8.80;6.97;;;;;;;;;;5042516;28;20252;-64
2023/08/26 02:12:53;;;;;;;8.93;6.70;;;;;;;;;;5037433;28;20206;-61
2023/08/26 02:15:21;;;;;;;8.70;7.20;;;;;;;;;;5036256;28;20213;-63
2023/08/26 02:17:48;;;;;;;8.30;7.03;;;;;;;;;;5040472;28;20214;-62
2023/08/26 02:20:16;;;;;;;7.22;6.50;;;;;;;;;;5030612;28;20202;-59
2023/08/26 02:22:43;;;;;;;10.10;6.70;;;;;;;;;;5032902;28;20214;-64
2023/08/26 02:25:10;;;;;;;7.63;6.82;;;;;;;;;;5040592;28;20256;-61
2023/08/26 02:27:39;;;;;;;6.28;5.68;;;;;;;;;;5037579;28;20197;-63
2023/08/26 02:30:07;;;;;;;7.70;6.15;;;;;;;;;;5037273;28;20210;-60
2023/08/26 02:32:34;;;;;;;6.40;5.80;;;;;;;;;;5034537;28;20271;-59
2023/08/26 02:35:02;;;;;;;8.13;6.93;;;;;;;;;;5041485;28;20202;-62
2023/08/26 02:37:30;;;;;;;8.05;6.35;;;;;;;;;;5035472;28;20230;-61
2023/08/26 02:39:57;;;;;;;7.95;6.82;;;;;;;;;;5032736;28;20207;-64
2023/08/26 02:42:25;;;;;;;6.97;6.28;;;;;;;;;;5038390;28;20793;-62
2023/08/26 02:44:52;;;;;;;8.57;7.00;;;;;;;;;;5037667;28;20199;-65
2023/08/26 02:47:19;;;;;;;7.97;6.60;;;;;;;;;;5034660;28;20226;-63
2023/08/26 02:49:47;;;;;;;5.82;5.32;;;;;;;;;;5041729;28;20218;-61
2023/08/26 02:52:14;;;;;;;6.70;6.00;;;;;;;;;;5042953;28;20210;-61
2023/08/26 02:54:41;;;;;;;7.97;6.18;;;;;;;;;;5034578;28;20220;-60
2023/08/26 02:57:09;;;;;;;6.60;5.55;;;;;;;;;;5039738;28;20232;-61
2023/08/26 02:59:38;;;;;;;6.30;5.10;;;;;;;;;;5033376;28;20222;-63
2023/08/26 03:02:06;;;;;;;5.40;4.90;;;;;;;;;;5035351;28;20673;-60
2023/08/26 03:04:34;;;;;;;5.43;4.97;;;;;;;;;;5033609;28;20244;-62
2023/08/26 03:07:02;;;;;;;5.68;5.07;;;;;;;;;;5036135;28;20224;-61
2023/08/26 03:09:29;;;;;;;5.78;4.72;;;;;;;;;;5038701;28;20295;-62
2023/08/26 03:11:56;;;;;;;5.85;4.50;;;;;;;;;;5034868;28;20734;-62
2023/08/26 03:14:24;;;;;;;5.47;4.95;;;;;;;;;;5034494;28;20550;-63
2023/08/26 03:16:51;;;;;;;5.70;5.10;;;;;;;;;;5035932;28;20295;-61
2023/08/26 03:19:18;;;;;;;5.28;4.82;;;;;;;;;;5036471;28;20219;-60
2023/08/26 03:21:46;;;;;;;5.60;5.03;;;;;;;;;;5033126;28;20206;-62
2023/08/26 03:24:16;;;;;;;13.00;11.65;;;;;;;;;;5031894;28;20937;-61
2023/08/26 03:26:44;;;;;;;16.58;14.20;;;;;;;;;;5033417;28;20217;-60
2023/08/26 03:29:11;;;;;;;7.65;6.78;;;;;;;;;;5041612;28;20202;-62
2023/08/26 03:31:39;;;;;;;5.78;5.28;;;;;;;;;;5038435;28;20211;-61
2023/08/26 03:34:06;;;;;;;6.15;5.55;;;;;;;;;;5029920;28;20294;-61
2023/08/26 03:36:33;;;;;;;5.88;4.50;;;;;;;;;;5042867;28;20218;-61
2023/08/26 03:39:01;;;;;;;5.20;4.70;;;;;;;;;;5043763;28;20709;-62
2023/08/26 03:41:28;;;;;;;7.88;4.78;;;;;;;;;;5042385;28;20205;-64
2023/08/26 03:43:56;;;;;;;5.80;4.60;;;;;;;;;;5035121;28;20202;-61
2023/08/26 03:46:23;;;;;;;5.45;4.63;;;;;;;;;;5034892;28;20309;-61
2023/08/26 03:48:51;;;;;;;5.00;4.50;;;;;;;;;;5038014;28;20245;-61
2023/08/26 03:51:19;;;;;;;7.50;5.10;;;;;;;;;;5040938;28;20207;-61
2023/08/26 03:53:46;;;;;;;5.97;4.75;;;;;;;;;;5043646;28;20209;-60
2023/08/26 03:56:14;;;;;;;5.25;4.85;;;;;;;;;;5034887;28;20230;-62
2023/08/26 03:58:42;;;;;;;5.78;4.68;;;;;;;;;;5035669;28;20211;-63
2023/08/26 04:01:09;;;;;;;6.05;4.50;;;;;;;;;;5036894;28;20211;-63
2023/08/26 04:03:36;;;;;;;5.28;4.65;;;;;;;;;;5040951;28;20237;-63
2023/08/26 04:06:05;;;;;;;4.82;4.32;;;;;;;;;;5038548;28;20752;-61
2023/08/26 04:08:33;;;;;;;7.18;4.57;;;;;;;;;;5041463;28;20202;-62
2023/08/26 04:11:01;;;;;;;7.63;4.55;;;;;;;;;;5037080;28;20218;-62
2023/08/26 04:13:29;;;;;;;7.03;4.63;;;;;;;;;;5038621;28;20214;-61
2023/08/26 04:15:57;;;;;;;5.40;4.72;;;;;;;;;;5045209;28;20222;-62
2023/08/26 04:18:25;;;;;;;6.03;4.47;;;;;;;;;;5039204;28;20309;-62
2023/08/26 04:20:52;;;;;;;5.50;4.50;;;;;;;;;;5043592;28;20206;-61
2023/08/26 04:23:20;;;;;;;5.15;4.68;;;;;;;;;;5039447;28;20580;-62
2023/08/26 04:25:47;;;;;;;5.57;4.97;;;;;;;;;;5038602;28;20594;-59
2023/08/26 04:28:14;;;;;;;5.43;4.80;;;;;;;;;;5037530;28;20506;-61
2023/08/26 04:30:42;;;;;;;5.72;5.15;;;;;;;;;;5038998;28;20203;-64
2023/08/26 04:33:09;;;;;;;5.97;5.47;;;;;;;;;;5040001;28;20213;-62
2023/08/26 04:35:37;;;;;;;6.88;4.85;;;;;;;;;;5038496;28;20226;-63
2023/08/26 04:38:05;;;;;;;5.38;4.88;;;;;;;;;;5040110;28;20198;-62
2023/08/26 04:40:33;;;;;;;5.30;4.78;;;;;;;;;;5041487;28;20280;-61
2023/08/26 04:43:03;;;;;;;6.82;4.75;;;;;;;;;;5034609;28;20211;-60
2023/08/26 04:45:31;;;;;;;5.35;4.82;;;;;;;;;;5041798;28;20742;-60
2023/08/26 04:47:58;;;;;;;5.25;4.75;;;;;;;;;;5034672;28;20294;-61
2023/08/26 04:50:26;;;;;;;7.90;4.95;;;;;;;;;;5039867;28;20238;-60
2023/08/26 04:52:53;;;;;;;5.45;4.90;;;;;;;;;;5038860;28;20205;-65
2023/08/26 04:55:20;;;;;;;5.30;4.80;;;;;;;;;;5034035;28;20218;-61
2023/08/26 04:57:48;;;;;;;5.88;5.28;;;;;;;;;;5045325;28;20202;-62
2023/08/26 05:00:16;;;;;;;6.45;5.88;;;;;;;;;;5035831;28;20226;-62
2023/08/26 05:02:45;;;;;;;7.72;6.93;;;;;;;;;;5044958;28;20212;-62
2023/08/26 05:05:15;;;;;;;6.47;5.45;;;;;;;;;;5044217;28;20881;-61
2023/08/26 05:07:42;;;;;;;7.22;5.28;;;;;;;;;;5043382;28;20199;-60
2023/08/26 05:10:10;;;;;;;6.15;5.50;;;;;;;;;;5035610;28;20300;-62
2023/08/26 05:12:37;;;;;;;6.13;5.53;;;;;;;;;;5045000;28;20712;-62
2023/08/26 05:15:05;;;;;;;7.03;5.45;;;;;;;;;;5030939;28;20214;-61
2023/08/26 05:17:32;;;;;;;8.85;6.32;;;;;;;;;;5039727;28;20206;-63
2023/08/26 05:20:00;;;;;;;11.13;9.77;;;;;;;;;;5028922;28;20234;-62
2023/08/26 05:22:27;;;;;;;17.38;11.85;;;;;;;;;;5037293;28;20263;-61
2023/08/26 05:24:55;;;;;;;12.18;10.40;;;;;;;;;;5042629;28;20664;-61
2023/08/26 05:27:23;;;;;;;9.38;8.32;;;;;;;;;;5038000;28;20239;-61
2023/08/26 05:29:51;;;;;;;9.77;8.52;;;;;;;;;;5037612;28;20648;-61
2023/08/26 05:32:18;;;;;;;11.30;7.85;;;;;;;;;;5035074;28;20309;-60
2023/08/26 05:34:46;;;;;;;8.48;7.60;;;;;;;;;;5040255;28;20217;-60
2023/08/26 05:37:14;;;;;;;7.00;6.13;;;;;;;;;;5034229;28;20356;-61
2023/08/26 05:39:41;;;;;;;6.00;5.40;;;;;;;;;;5034496;28;21241;-62
2023/08/26 05:42:08;;;;;;;7.30;5.40;;;;;;;;;;5042202;28;20248;-61
2023/08/26 05:44:36;;;;;;;5.68;5.13;;;;;;;;;;5043305;28;20220;-60
2023/08/26 05:47:03;;;;;;;7.72;5.28;;;;;;;;;;5038520;28;20218;-61
2023/08/26 05:49:30;;;;;;;5.22;4.72;;;;;;;;;;5031839;28;20688;-61
2023/08/26 05:51:58;;;;;;;5.75;5.10;;;;;;;;;;5041410;28;20205;-61
2023/08/26 05:54:25;;;;;;;6.93;5.38;;;;;;;;;;5036584;28;20214;-62
2023/08/26 05:56:52;;;;;;;5.50;4.93;;;;;;;;;;5037245;28;20272;-60
2023/08/26 05:59:20;;;;;;;7.07;4.78;;;;;;;;;;5036500;28;20237;-61
2023/08/26 06:01:47;;;;;;;5.70;4.75;;;;;;;;;;5040844;28;20205;-61
2023/08/26 06:04:14;;;;;;;5.72;5.15;;;;;;;;;;5034752;28;20423;-59
2023/08/26 06:06:44;;;;;;;5.88;5.00;;;;;;;;;;5028667;28;20246;-61
2023/08/26 06:09:13;;;;;;;6.15;4.70;;;;;;;;;;5031532;28;20290;-58
2023/08/26 06:11:41;;;;;;;7.05;5.53;;;;;;;;;;5037615;28;20210;-60
2023/08/26 06:14:08;;;;;;;8.07;5.32;;;;;;;;;;5033890;28;20225;-63
2023/08/26 06:16:36;;;;;;;8.00;5.80;;;;;;;;;;5033790;28;20234;-61
2023/08/26 06:19:04;;;;;;;5.65;4.90;;;;;;;;;;5034491;28;20231;-63
2023/08/26 06:21:31;;;;;;;7.78;5.32;;;;;;;;;;5036428;28;20209;-62
2023/08/26 06:23:59;;;;;;;6.20;4.88;;;;;;;;;;5041546;28;20712;-61
2023/08/26 06:26:26;;;;;;;9.82;5.60;;;;;;;;;;5036965;28;20226;-63
2023/08/26 06:28:53;;;;;;;6.50;5.07;;;;;;;;;;5037458;28;20614;-62
2023/08/26 06:31:20;;;;;;;6.72;5.63;;;;;;;;;;5037572;28;20216;-64
2023/08/26 06:33:49;;;;;;;5.55;4.78;;;;;;;;;;5032169;28;20313;-64
2023/08/26 06:36:17;;;;;;;7.55;6.07;;;;;;;;;;5031154;28;20405;-60
2023/08/26 06:38:48;;;;;;;9.63;5.85;;;;;;;;;;5032447;28;20199;-61
2023/08/26 06:41:15;;;;;;;7.97;5.68;;;;;;;;;;5034597;28;20202;-60
2023/08/26 06:43:42;;;;;;;6.07;5.45;;;;;;;;;;5029220;28;20198;-63
2023/08/26 06:46:10;;;;;;;7.75;5.50;;;;;;;;;;5032435;28;20272;-61
2023/08/26 06:48:38;;;;;;;7.35;5.40;;;;;;;;;;5032227;28;20195;-60
2023/08/26 06:51:05;;;;;;;7.47;5.72;;;;;;;;;;5034772;28;20668;-61
2023/08/26 06:53:33;;;;;;;9.88;5.93;;;;;;;;;;5031106;28;20229;-59
2023/08/26 06:56:00;;;;;;;5.75;4.93;;;;;;;;;;5031799;28;20634;-63
2023/08/26 06:58:28;;;;;;;9.57;5.60;;;;;;;;;;5027295;28;20210;-62
2023/08/26 07:00:56;;;;;;;7.55;5.45;;;;;;;;;;5038008;28;20222;-63
2023/08/26 07:03:24;;;;;;;6.70;5.00;;;;;;;;;;5036024;28;20209;-60
2023/08/26 07:05:52;;;;;;;8.07;5.18;;;;;;;;;;5040123;28;20218;-62
2023/08/26 07:08:22;;;;;;;8.13;5.35;;;;;;;;;;5038577;28;20218;-59
2023/08/26 07:10:50;;;;;;;7.30;5.60;;;;;;;;;;5035888;28;20207;-61
2023/08/26 07:13:18;;;;;;;5.68;5.03;;;;;;;;;;5037256;28;20207;-63
2023/08/26 07:15:45;;;;;;;11.50;7.20;;;;;;;;;;5033932;28;20309;-61
2023/08/26 07:18:13;;;;;;;12.50;6.60;;;;;;;;;;5038027;28;20203;-64
2023/08/26 07:20:41;;;;;;;26.75;13.90;;;;;;;;;;5044632;28;20248;-63
2023/08/26 07:23:08;;;;;;;15.68;6.95;;;;;;;;;;5042936;28;20751;-65
2023/08/26 07:25:36;;;;;;;5.90;4.00;;;;;;;;;;5035936;28;20230;-63
2023/08/26 07:28:04;;;;;;;7.57;4.50;;;;;;;;;;5033174;28;20652;-61
2023/08/26 07:30:31;;;;;;;9.05;5.03;;;;;;;;;;5035847;28;20722;-61
2023/08/26 07:32:59;;;;;;;6.88;4.38;;;;;;;;;;5029238;28;20210;-62
2023/08/26 07:35:26;;;;;;;6.97;4.40;;;;;;;;;;5030508;28;20633;-64
2023/08/26 07:37:54;;;;;;;6.05;3.67;;;;;;;;;;5031986;28;20198;-61
2023/08/26 07:40:22;;;;;;;7.18;4.30;;;;;;;;;;5034919;28;20257;-61
2023/08/26 07:42:49;;;;;;;6.55;4.00;;;;;;;;;;5036313;28;20210;-63
2023/08/26 07:45:17;;;;;;;6.95;4.13;;;;;;;;;;5043281;28;20660;-61
2023/08/26 07:47:44;;;;;;;6.25;4.07;;;;;;;;;;5039264;28;20198;-64
2023/08/26 07:50:14;;;;;;;4.88;3.97;;;;;;;;;;5037492;28;20215;-63
2023/08/26 07:52:42;;;;;;;5.65;3.90;;;;;;;;;;5035323;28;20261;-63
2023/08/26 07:55:09;;;;;;;10.02;4.03;;;;;;;;;;5032221;28;20217;-62
2023/08/26 07:57:37;;;;;;;5.75;3.58;;;;;;;;;;5036951;28;20210;-63
2023/08/26 08:00:05;;;;;;;5.47;3.90;;;;;;;;;;5039844;28;20229;-62
2023/08/26 08:02:36;;;;;;;6.97;3.60;;;;;;;;;;5032645;28;20213;-63
2023/08/26 08:05:06;;;;;;;6.40;4.15;;;;;;;;;;5026158;28;20213;-64
2023/08/26 08:07:33;;;;;;;10.30;4.32;;;;;;;;;;5034643;28;20206;-62
2023/08/26 08:10:00;;;;;;;5.28;3.60;;;;;;;;;;5038261;28;20210;-63
2023/08/26 08:12:28;;;;;;;5.32;3.63;;;;;;;;;;5041229;28;20210;-62
2023/08/26 08:14:55;;;;;;;6.78;3.97;;;;;;;;;;5041088;28;20199;-63
2023/08/26 08:17:22;;;;;;;8.73;3.75;;;;;;;;;;5038769;28;20288;-62
2023/08/26 08:19:50;;;;;;;6.78;3.55;;;;;;;;;;5040069;28;20229;-61
2023/08/26 08:22:17;;;;;;;7.90;4.63;;;;;;;;;;5034372;28;20298;-62
2023/08/26 08:24:46;;;;;;;5.50;3.90;;;;;;;;;;5034818;28;20975;-60
2023/08/26 08:27:14;;;;;;;7.35;3.70;;;;;;;;;;5034335;28;20233;-61
2023/08/26 08:29:42;;;;;;;6.07;3.55;;;;;;;;;;5036858;28;20233;-62
2023/08/26 08:32:09;;;;;;;5.90;3.60;;;;;;;;;;5040474;28;20652;-61
2023/08/26 08:34:36;;;;;;;6.45;3.80;;;;;;;;;;5036550;28;20206;-58
2023/08/26 08:37:04;;;;;;;5.22;3.65;;;;;;;;;;5032070;28;20234;-62
2023/08/26 08:39:31;;;;;;;5.25;3.17;;;;;;;;;;5040999;28;20833;-60
2023/08/26 08:42:00;;;;;;;5.00;3.58;;;;;;;;;;5040414;28;20594;-59
2023/08/26 08:44:32;;;;;;;7.85;3.70;;;;;;;;;;5038543;28;20229;-59
2023/08/26 08:46:59;;;;;;;4.63;3.50;;;;;;;;;;5041567;28;20277;-62
2023/08/26 08:49:28;;;;;;;5.70;3.40;;;;;;;;;;5037950;28;20207;-61
2023/08/26 08:51:55;;;;;;;6.22;3.50;;;;;;;;;;5040226;28;20210;-60
2023/08/26 08:54:24;;;;;;;5.53;3.15;;;;;;;;;;5034693;28;20222;-59
2023/08/26 08:56:52;;;;;;;5.97;3.45;;;;;;;;;;5039892;28;20309;-61
2023/08/26 08:59:20;;;;;;;5.05;3.55;;;;;;;;;;5037201;28;20722;-64
2023/08/26 09:01:48;;;;;;;5.40;3.40;;;;;;;;;;5038250;28;20199;-63
2023/08/26 09:04:15;;;;;;;4.13;3.35;;;;;;;;;;5039673;28;20209;-60
2023/08/26 09:06:43;;;;;;;7.43;3.72;;;;;;;;;;5040907;28;20222;-61
2023/08/26 09:09:11;;;;;;;5.50;3.25;;;;;;;;;;5031986;28;20612;-60
2023/08/26 09:11:58;;;;;;;5.18;3.35;;;;;;;;;;5031822;28;20241;-61
2023/08/26 09:14:26;;;;;;;3.50;3.17;;;;;;;;;;5036218;28;20206;-63
2023/08/26 09:16:55;;;;;;;5.13;3.28;;;;;;;;;;5030908;28;20221;-60
2023/08/26 09:19:22;;;;;;;10.27;4.00;;;;;;;;;;5026992;28;20213;-60
2023/08/26 09:21:50;;;;;;;7.75;4.00;;;;;;;;;;5031456;28;20206;-61
2023/08/26 09:24:18;;;;;;;7.25;3.95;;;;;;;;;;5032628;28;20198;-60
2023/08/26 09:27:05;;;;;;;6.05;3.22;;;;;;;;;;5031821;28;20965;-60
2023/08/26 09:29:33;;;;;;;7.70;3.33;;;;;;;;;;5033873;28;20248;-61
2023/08/26 09:32:00;;;;;;;6.20;3.45;;;;;;;;;;5032448;28;20215;-62
2023/08/26 09:34:29;;;;;;;7.57;4.20;;;;;;;;;;5026219;28;20206;-61
2023/08/26 09:36:57;;;;;;;5.97;3.58;;;;;;;;;;5035584;28;20218;-62
2023/08/26 09:39:25;;;;;;;5.07;3.30;;;;;;;;;;5030781;28;20263;-61
2023/08/26 09:41:55;;;;;;;6.32;3.03;;;;;;;;;;5032629;28;21342;-61
2023/08/26 09:44:23;;;;;;;4.38;3.50;;;;;;;;;;5030231;28;20209;-65
2023/08/26 09:46:50;;;;;;;4.63;3.10;;;;;;;;;;5036307;28;20299;-64
2023/08/26 09:49:18;;;;;;;4.75;3.13;;;;;;;;;;5026773;28;20207;-60
2023/08/26 09:51:50;;;;;;;3.65;3.08;;;;;;;;;;5037189;28;20211;-60
2023/08/26 09:54:18;;;;;;;5.53;2.92;;;;;;;;;;5029288;28;20214;-62
2023/08/26 09:56:46;;;;;;;5.90;3.25;;;;;;;;;;5033130;28;20279;-62
2023/08/26 09:59:14;;;;;;;5.13;3.17;;;;;;;;;;5030336;28;20211;-62
2023/08/26 10:01:42;;;;;;;7.22;3.25;;;;;;;;;;5033964;28;20291;-60
2023/08/26 10:04:11;;;;;;;5.75;3.22;;;;;;;;;;5038100;28;20198;-62
2023/08/26 10:06:47;;;;;;;6.13;3.17;;;;;;;;;;5034562;28;20225;-62
2023/08/26 10:09:15;;;;;;;5.32;3.28;;;;;;;;;;5033571;28;20747;-62
2023/08/26 10:11:42;;;;;;;5.63;3.45;;;;;;;;;;5032865;28;21669;-64
2023/08/26 10:14:12;;;;;;;7.03;3.35;;;;;;;;;;5032351;28;20210;-64
2023/08/26 10:16:41;;;;;;;3.90;2.90;;;;;;;;;;5030912;28;20226;-61
2023/08/26 10:19:09;;;;;;;8.07;3.40;;;;;;;;;;5035110;28;20754;-63
2023/08/26 10:21:37;;;;;;;5.45;2.97;;;;;;;;;;5034783;28;21840;-59
2023/08/26 10:24:04;;;;;;;6.90;3.97;;;;;;;;;;5028799;28;20214;-62
2023/08/26 10:26:32;;;;;;;6.07;3.38;;;;;;;;;;5036626;28;20313;-63
2023/08/26 10:29:00;;;;;;;5.43;3.40;;;;;;;;;;5034906;28;20812;-63
2023/08/26 10:31:34;;;;;;;4.15;3.15;;;;;;;;;;5029656;28;20211;-62
2023/08/26 10:34:01;;;;;;;5.55;3.67;;;;;;;;;;5029083;28;20206;-62
2023/08/26 10:36:29;;;;;;;5.90;4.00;;;;;;;;;;5032688;28;20319;-63
2023/08/26 10:38:59;;;;;;;6.60;3.47;;;;;;;;;;5032184;28;20210;-62
2023/08/26 10:41:27;;;;;;;7.68;3.65;;;;;;;;;;5035036;28;20226;-61
2023/08/26 10:43:55;;;;;;;5.85;3.25;;;;;;;;;;5033880;28;20217;-62
2023/08/26 10:46:33;;;;;;;4.28;3.35;;;;;;;;;;5034946;28;20229;-61
2023/08/26 10:49:00;;;;;;;6.55;3.58;;;;;;;;;;5029949;28;20205;-62
2023/08/26 10:51:28;;;;;;;3.83;3.05;;;;;;;;;;5029459;28;21132;-63
2023/08/26 10:54:02;;;;;;;6.28;3.60;;;;;;;;;;5028190;28;20287;-60
2023/08/26 10:56:33;;;;;;;6.85;4.10;;;;;;;;;;5025688;28;20230;-61
2023/08/26 10:59:02;;;;;;;7.63;5.10;;;;;;;;;;5025947;28;20459;-61
2023/08/26 11:01:38;;;;;;;7.68;4.00;;;;;;;;;;5026206;28;20230;-62
2023/08/26 11:04:05;;;;;;;3.70;3.40;;;;;;;;;;5027762;28;20209;-63
2023/08/26 11:06:41;;;;;;;6.18;3.70;;;;;;;;;;5036179;28;20312;-61
2023/08/26 11:09:09;;;;;;;6.53;3.20;;;;;;;;;;5030643;28;20259;-61
2023/08/26 11:11:37;;;;;;;8.18;3.95;;;;;;;;;;5029522;28;20198;-60
2023/08/26 11:14:05;;;;;;;6.30;4.00;;;;;;;;;;5033720;28;20207;-61
2023/08/26 11:16:33;;;;;;;6.38;4.70;;;;;;;;;;5032137;28;20233;-62
2023/08/26 11:19:00;;;;;;;9.07;4.90;;;;;;;;;;5029926;28;20541;-64
2023/08/26 11:21:28;;;;;;;9.02;4.05;;;;;;;;;;5033185;28;20222;-60
2023/08/26 11:23:57;;;;;;;7.30;3.60;;;;;;;;;;5034594;28;20687;-62
2023/08/26 11:26:25;;;;;;;6.97;4.07;;;;;;;;;;5034689;28;20647;-62
2023/08/26 11:28:52;;;;;;;5.03;3.88;;;;;;;;;;5036128;28;20210;-63
2023/08/26 11:31:19;;;;;;;6.60;3.65;;;;;;;;;;5030050;28;20214;-62
2023/08/26 11:33:48;;;;;;;6.70;3.70;;;;;;;;;;5028532;28;20248;-63
2023/08/26 11:36:19;;;;;;;9.05;4.20;;;;;;;;;;5030982;28;20226;-63
2023/08/26 11:38:47;;;;;;;5.80;3.90;;;;;;;;;;5029139;28;20211;-62
2023/08/26 11:41:14;;;;;;;7.53;4.35;;;;;;;;;;5030349;28;20226;-64
2023/08/26 11:43:42;;;;;;;7.18;4.47;;;;;;;;;;5031718;28;20203;-60
2023/08/26 11:46:10;;;;;;;5.80;4.20;;;;;;;;;;5036212;28;20295;-62
2023/08/26 11:48:37;;;;;;;6.55;4.88;;;;;;;;;;5038620;28;20205;-61
2023/08/26 11:51:05;;;;;;;7.10;5.20;;;;;;;;;;5040739;28;20218;-61
2023/08/26 11:53:35;;;;;;;8.48;5.43;;;;;;;;;;5034555;28;20260;-61
2023/08/26 11:56:02;;;;;;;6.20;5.30;;;;;;;;;;5037956;28;20671;-60
2023/08/26 11:58:31;;;;;;;12.73;5.55;;;;;;;;;;5038892;28;20206;-61
2023/08/26 12:00:59;;;;;;;7.95;5.28;;;;;;;;;;5041754;28;20267;-59
2023/08/26 12:03:30;;;;;;;6.97;5.68;;;;;;;;;;5031498;28;20217;-61
2023/08/26 12:05:58;;;;;;;7.20;5.30;;;;;;;;;;5035438;28;20230;-61
2023/08/26 12:08:25;;;;;;;8.05;5.45;;;;;;;;;;5036304;28;20699;-61
2023/08/26 12:10:53;;;;;;;8.98;5.63;;;;;;;;;;5038325;28;20202;-62
2023/08/26 12:13:21;;;;;;;9.02;6.10;;;;;;;;;;5032131;28;20220;-62
2023/08/26 12:15:50;;;;;;;9.13;6.20;;;;;;;;;;5033663;28;20236;-62
2023/08/26 12:18:20;;;;;;;8.50;6.45;;;;;;;;;;5033676;28;20233;-59
2023/08/26 12:20:48;;;;;;;9.30;6.25;;;;;;;;;;5035127;28;20222;-59
2023/08/26 12:23:19;;;;;;;11.50;6.57;;;;;;;;;;5032215;28;20210;-63
2023/08/26 12:25:46;;;;;;;8.38;5.80;;;;;;;;;;5035788;28;20248;-62
2023/08/26 12:28:18;;;;;;;10.80;6.13;;;;;;;;;;5032624;28;20203;-61
2023/08/26 12:30:46;;;;;;;6.85;5.97;;;;;;;;;;5033152;28;20603;-61
2023/08/26 12:33:14;;;;;;;6.95;6.22;;;;;;;;;;5029400;28;20222;-62
2023/08/26 12:35:52;;;;;;;9.05;7.00;;;;;;;;;;5034931;28;20230;-62
2023/08/26 12:38:20;;;;;;;7.45;6.72;;;;;;;;;;5034717;28;20211;-62
2023/08/26 12:40:48;;;;;;;9.23;6.75;;;;;;;;;;5032834;28;20231;-62
2023/08/26 12:43:18;;;;;;;6.40;5.68;;;;;;;;;;5028037;28;20211;-61
2023/08/26 12:45:46;;;;;;;7.57;5.35;;;;;;;;;;5032928;28;20234;-63
2023/08/26 12:48:14;;;;;;;5.60;5.07;;;;;;;;;;5023327;28;20221;-60
2023/08/26 12:50:59;;;;;;;6.00;5.00;;;;;;;;;;5029910;28;20205;-64
2023/08/26 12:53:27;;;;;;;7.13;5.40;;;;;;;;;;5033268;28;20198;-64
2023/08/26 12:55:55;;;;;;;5.38;4.82;;;;;;;;;;5035863;28;20218;-60
2023/08/26 12:58:25;;;;;;;6.47;5.25;;;;;;;;;;5032278;28;20943;-59
2023/08/26 13:00:52;;;;;;;6.88;5.13;;;;;;;;;;5035147;28;20246;-62
2023/08/26 13:03:20;;;;;;;6.68;4.85;;;;;;;;;;5035944;28;20336;-63
2023/08/26 13:05:48;;;;;;;8.27;5.75;;;;;;;;;;5035878;28;20218;-61
2023/08/26 13:08:16;;;;;;;9.05;6.15;;;;;;;;;;5038354;28;20289;-62
2023/08/26 13:10:43;;;;;;;18.77;13.45;;;;;;;;;;5040402;28;20221;-62
2023/08/26 13:13:10;;;;;;;9.02;6.80;;;;;;;;;;5036173;28;20210;-60
2023/08/26 13:15:41;;;;;;;5.60;5.10;;;;;;;;;;5039898;28;20226;-61
2023/08/26 13:18:09;;;;;;;6.68;5.13;;;;;;;;;;5037505;28;20665;-63
2023/08/26 13:20:39;;;;;;;6.22;5.45;;;;;;;;;;5032282;28;20380;-61
2023/08/26 13:23:09;;;;;;;6.50;5.40;;;;;;;;;;5030554;28;20672;-60
2023/08/26 13:25:37;;;;;;;6.28;5.68;;;;;;;;;;5037856;28;20275;-59
2023/08/26 13:28:05;;;;;;;7.30;6.60;;;;;;;;;;5029286;28;20207;-61
2023/08/26 13:30:33;;;;;;;8.55;6.72;;;;;;;;;;5032640;28;20683;-63
2023/08/26 13:33:01;;;;;;;7.78;6.90;;;;;;;;;;5028415;28;20214;-61
2023/08/26 13:35:32;;;;;;;10.30;6.82;;;;;;;;;;5028963;28;20241;-62
2023/08/26 13:37:59;;;;;;;9.45;7.68;;;;;;;;;;5032085;28;20202;-60
2023/08/26 13:40:27;;;;;;;8.93;7.00;;;;;;;;;;5042665;28;20217;-62
2023/08/26 13:42:55;;;;;;;17.83;10.82;;;;;;;;;;5039650;28;20198;-62
2023/08/26 13:45:23;;;;;;;19.02;11.90;;;;;;;;;;5030229;28;20194;-62
2023/08/26 13:47:50;;;;;;;8.23;7.32;;;;;;;;;;5036848;28;20206;-62
2023/08/26 13:50:18;;;;;;;7.15;6.40;;;;;;;;;;5040869;28;20205;-62
2023/08/26 13:52:45;;;;;;;9.45;8.60;;;;;;;;;;5036823;28;20202;-62
2023/08/26 13:55:16;;;;;;;8.35;5.30;;;;;;;;;;5035326;28;20749;-61
2023/08/26 13:57:44;;;;;;;7.60;5.93;;;;;;;;;;5044756;28;20303;-63
2023/08/26 14:00:13;;;;;;;6.07;4.57;;;;;;;;;;5036499;28;20214;-63
2023/08/26 14:02:41;;;;;;;9.95;4.55;;;;;;;;;;5036171;28;20690;-64
2023/08/26 14:05:11;;;;;;;6.28;4.40;;;;;;;;;;5043322;28;20221;-62
2023/08/26 14:07:39;;;;;;;6.30;4.20;;;;;;;;;;5041606;28;20208;-62
2023/08/26 14:10:06;;;;;;;7.07;4.95;;;;;;;;;;5034336;28;20263;-62
2023/08/26 14:12:38;;;;;;;6.32;4.18;;;;;;;;;;5030666;28;20708;-61
2023/08/26 14:15:10;;;;;;;6.13;3.70;;;;;;;;;;5012389;28;20260;-62
2023/08/26 14:17:38;;;;;;;5.97;3.70;;;;;;;;;;5030846;28;20230;-65
2023/08/26 14:20:06;;;;;;;5.55;3.42;;;;;;;;;;5031131;28;20202;-61
2023/08/26 14:22:33;;;;;;;7.20;3.40;;;;;;;;;;5031087;28;20223;-63
2023/08/26 14:25:01;;;;;;;7.78;3.80;;;;;;;;;;5031864;28;20225;-61
2023/08/26 14:27:29;;;;;;;5.75;4.03;;;;;;;;;;5033249;28;20230;-62
2023/08/26 14:29:56;;;;;;;5.10;3.50;;;;;;;;;;5038465;28;20205;-62
2023/08/26 14:32:24;;;;;;;6.00;4.05;;;;;;;;;;5027383;28;20225;-60
2023/08/26 14:34:51;;;;;;;6.57;5.97;;;;;;;;;;5034177;28;20206;-62
2023/08/26 14:37:18;;;;;;;7.85;4.18;;;;;;;;;;5034428;28;20321;-62
2023/08/26 14:39:46;;;;;;;7.82;3.72;;;;;;;;;;5038031;28;20206;-62
2023/08/26 14:42:13;;;;;;;5.68;3.50;;;;;;;;;;5029576;28;21762;-62
2023/08/26 14:44:41;;;;;;;5.88;3.30;;;;;;;;;;5037828;28;20205;-62
2023/08/26 14:47:09;;;;;;;4.72;3.60;;;;;;;;;;5035199;28;20309;-63